Terminal Aerodrome Forecast
Issued by NWS

Home | Current Version | Previous Version | Text Only | Print | Product List | Glossary On
Versions: 1 2 3 4 5 6 7 8 9 10 11 12 13 14 15 16 17 18 19 20 21 22 23 24 25
000
FTUS43 KBIS 121137
TAFJMS
TAF
KJMS 121137Z 1212/1312 26007KT P6SM SCT100
      TEMPO 1212/1213 BKN020
     FM130300 26010KT P6SM SCT200 WS020/30035KT
     FM130600 30017G25KT P6SM BKN100
     FM131100 33024G34KT P6SM BKN030=

USA.gov is the U.S. government's official web portal to all federal, state and local government web resources and services.